RIL weather

Garfield County Regional Airport
Rifle, Colorado, United States

Public forecast

Using degrees Fahrenheit for public forecast. Weather courtesy of forecast.io.

METAR (pilot weather report)

Retrieved 2019/08/25 13:53 UTC (32 minutes ago):

KRIL 251353Z AUTO 07003KT 10SM CLR 14/03 A3016 RMK AO2 SLP143 T01440028

TAF (pilot weather forecast)

Retrieved 2019/08/25 12:22 UTC (2 hours ago):

TAF KRIL 251120Z 2512/2612 00000KT P6SM SKC FM251900 26011G22KT P6SM FEW250 FM260200 27008KT P6SM FEW150 FEW250 FM260600 00000KT P6SM SKC